sensor_id;sensor_type;location;lat;lon;timestamp;pressure;altitude;pressure_sealevel;temperature;humidity
48652;BME280;34442;52.362;-1.302;2023-04-06T00:01:24;100034.94;;;9.88;100.00
48652;BME280;34442;52.362;-1.302;2023-04-06T00:03:50;100031.03;;;9.84;100.00
48652;BME280;34442;52.362;-1.302;2023-04-06T00:06:16;100030.00;;;9.85;100.00
48652;BME280;34442;52.362;-1.302;2023-04-06T00:08:41;100024.41;;;9.86;100.00
48652;BME280;34442;52.362;-1.302;2023-04-06T00:11:10;100019.66;;;9.88;100.00
48652;BME280;34442;52.362;-1.302;2023-04-06T00:13:35;100023.78;;;9.84;100.00
48652;BME280;34442;52.362;-1.302;2023-04-06T00:16:00;100016.34;;;9.86;100.00
48652;BME280;34442;52.362;-1.302;2023-04-06T00:18:26;100017.16;;;9.87;100.00
48652;BME280;34442;52.362;-1.302;2023-04-06T00:20:51;100009.50;;;9.90;100.00
48652;BME280;34442;52.362;-1.302;2023-04-06T00:23:17;100011.19;;;9.85;100.00
48652;BME280;34442;52.362;-1.302;2023-04-06T00:25:42;100001.69;;;9.89;100.00
48652;BME280;34442;52.362;-1.302;2023-04-06T00:28:08;100011.16;;;9.91;100.00
48652;BME280;34442;52.362;-1.302;2023-04-06T00:30:33;100008.47;;;9.91;100.00
48652;BME280;34442;52.362;-1.302;2023-04-06T00:32:58;100004.56;;;9.87;100.00
48652;BME280;34442;52.362;-1.302;2023-04-06T00:35:24;100001.47;;;9.90;100.00
48652;BME280;34442;52.362;-1.302;2023-04-06T00:37:49;100000.22;;;9.93;100.00
48652;BME280;34442;52.362;-1.302;2023-04-06T00:40:15;99989.91;;;9.90;100.00
48652;BME280;34442;52.362;-1.302;2023-04-06T00:42:41;99995.28;;;9.90;100.00
48652;BME280;34442;52.362;-1.302;2023-04-06T00:45:07;99986.81;;;9.86;100.00
48652;BME280;34442;52.362;-1.302;2023-04-06T00:47:33;99990.31;;;9.87;100.00
48652;BME280;34442;52.362;-1.302;2023-04-06T00:49:58;99983.09;;;9.87;100.00
48652;BME280;34442;52.362;-1.302;2023-04-06T00:52:24;99979.97;;;9.97;100.00
48652;BME280;34442;52.362;-1.302;2023-04-06T00:54:50;99980.38;;;9.94;100.00
48652;BME280;34442;52.362;-1.302;2023-04-06T00:57:16;99981.63;;;9.91;100.00
48652;BME280;34442;52.362;-1.302;2023-04-06T00:59:42;99972.56;;;9.92;100.00
48652;BME280;34442;52.362;-1.302;2023-04-06T01:02:08;99961.81;;;9.92;100.00
48652;BME280;34442;52.362;-1.302;2023-04-06T01:04:34;99966.13;;;9.93;100.00
48652;BME280;34442;52.362;-1.302;2023-04-06T01:06:59;99961.81;;;9.92;100.00
48652;BME280;34442;52.362;-1.302;2023-04-06T01:09:27;99957.25;;;9.93;100.00
48652;BME280;34442;52.362;-1.302;2023-04-06T01:11:52;99956.44;;;9.92;100.00
48652;BME280;34442;52.362;-1.302;2023-04-06T01:14:18;99944.25;;;9.90;100.00
48652;BME280;34442;52.362;-1.302;2023-04-06T01:16:43;99947.75;;;9.90;100.00
48652;BME280;34442;52.362;-1.302;2023-04-06T01:19:11;99948.59;;;9.91;100.00
48652;BME280;34442;52.362;-1.302;2023-04-06T01:21:37;99947.56;;;9.92;100.00
48652;BME280;34442;52.362;-1.302;2023-04-06T01:24:03;99945.06;;;9.90;100.00
48652;BME280;34442;52.362;-1.302;2023-04-06T01:26:29;99937.84;;;9.91;100.00
48652;BME280;34442;52.362;-1.302;2023-04-06T01:28:55;99940.75;;;9.89;100.00
48652;BME280;34442;52.362;-1.302;2023-04-06T01:31:21;99932.88;;;9.94;100.00
48652;BME280;34442;52.362;-1.302;2023-04-06T01:33:47;99926.47;;;9.95;100.00
48652;BME280;34442;52.362;-1.302;2023-04-06T01:36:12;99934.97;;;9.92;100.00
48652;BME280;34442;52.362;-1.302;2023-04-06T01:38:38;99925.88;;;9.93;100.00
48652;BME280;34442;52.362;-1.302;2023-04-06T01:41:03;99927.50;;;9.94;100.00
48652;BME280;34442;52.362;-1.302;2023-04-06T01:43:28;99922.13;;;9.94;100.00
48652;BME280;34442;52.362;-1.302;2023-04-06T01:45:54;99922.94;;;9.95;100.00
48652;BME280;34442;52.362;-1.302;2023-04-06T01:48:20;99916.16;;;9.92;100.00
48652;BME280;34442;52.362;-1.302;2023-04-06T01:50:45;99918.41;;;9.95;100.00
48652;BME280;34442;52.362;-1.302;2023-04-06T01:53:11;99917.16;;;9.98;100.00
48652;BME280;34442;52.362;-1.302;2023-04-06T01:55:37;99911.38;;;10.01;100.00
48652;BME280;34442;52.362;-1.302;2023-04-06T01:58:02;99911.38;;;10.01;100.00
48652;BME280;34442;52.362;-1.302;2023-04-06T02:00:28;99911.16;;;10.03;100.00
48652;BME280;34442;52.362;-1.302;2023-04-06T02:02:53;99904.13;;;10.02;100.00
48652;BME280;34442;52.362;-1.302;2023-04-06T02:05:19;99906.81;;;10.02;100.00
48652;BME280;34442;52.362;-1.302;2023-04-06T02:07:45;99897.72;;;10.03;100.00
48652;BME280;34442;52.362;-1.302;2023-04-06T02:10:12;99897.81;;;9.83;100.00
48652;BME280;34442;52.362;-1.302;2023-04-06T02:12:38;99900.31;;;9.78;100.00
48652;BME280;34442;52.362;-1.302;2023-04-06T02:15:04;99887.31;;;9.75;100.00
48652;BME280;34442;52.362;-1.302;2023-04-06T02:17:29;99891.63;;;9.82;100.00
48652;BME280;34442;52.362;-1.302;2023-04-06T02:19:55;99884.63;;;9.81;100.00
48652;BME280;34442;52.362;-1.302;2023-04-06T02:22:20;99884.38;;;9.83;100.00
48652;BME280;34442;52.362;-1.302;2023-04-06T02:24:46;99886.44;;;9.87;100.00
48652;BME280;34442;52.362;-1.302;2023-04-06T02:27:13;99883.97;;;9.86;100.00
48652;BME280;34442;52.362;-1.302;2023-04-06T02:29:38;99883.56;;;9.82;100.00
48652;BME280;34442;52.362;-1.302;2023-04-06T02:32:04;99879.47;;;9.80;100.00
48652;BME280;34442;52.362;-1.302;2023-04-06T02:34:29;99875.66;;;9.94;100.00
48652;BME280;34442;52.362;-1.302;2023-04-06T02:36:55;99862.38;;;10.06;100.00
48652;BME280;34442;52.362;-1.302;2023-04-06T02:39:20;99867.97;;;10.04;100.00
48652;BME280;34442;52.362;-1.302;2023-04-06T02:41:46;99864.41;;;10.10;100.00
48652;BME280;34442;52.362;-1.302;2023-04-06T02:44:11;99869.56;;;10.12;100.00
48652;BME280;34442;52.362;-1.302;2023-04-06T02:46:36;99864.66;;;10.09;100.00
48652;BME280;34442;52.362;-1.302;2023-04-06T02:49:02;99862.16;;;10.07;100.00
48652;BME280;34442;52.362;-1.302;2023-04-06T02:51:27;99867.09;;;10.10;100.00
48652;BME280;34442;52.362;-1.302;2023-04-06T02:53:53;99859.66;;;10.12;100.00
48652;BME280;34442;52.362;-1.302;2023-04-06T02:56:18;99858.41;;;10.15;100.00
48652;BME280;34442;52.362;-1.302;2023-04-06T02:58:46;99854.31;;;10.12;100.00
48652;BME280;34442;52.362;-1.302;2023-04-06T03:01:11;99843.56;;;10.12;100.00
48652;BME280;34442;52.362;-1.302;2023-04-06T03:03:37;99848.06;;;10.12;100.00
48652;BME280;34442;52.362;-1.302;2023-04-06T03:06:02;99842.69;;;10.12;100.00
48652;BME280;34442;52.362;-1.302;2023-04-06T03:08:28;99852.81;;;10.16;100.00
48652;BME280;34442;52.362;-1.302;2023-04-06T03:10:53;99854.22;;;10.19;100.00
48652;BME280;34442;52.362;-1.302;2023-04-06T03:13:19;99839.59;;;10.15;100.00
48652;BME280;34442;52.362;-1.302;2023-04-06T03:15:44;99838.34;;;10.17;100.00
48652;BME280;34442;52.362;-1.302;2023-04-06T03:18:10;99831.09;;;10.18;100.00
48652;BME280;34442;52.362;-1.302;2023-04-06T03:20:35;99829.25;;;10.18;100.00
48652;BME280;34442;52.362;-1.302;2023-04-06T03:23:00;99832.97;;;10.17;100.00
48652;BME280;34442;52.362;-1.302;2023-04-06T03:25:27;99832.56;;;10.21;100.00
48652;BME280;34442;52.362;-1.302;2023-04-06T03:27:53;99831.34;;;10.16;100.00
48652;BME280;34442;52.362;-1.302;2023-04-06T03:30:19;99829.91;;;10.14;100.00
48652;BME280;34442;52.362;-1.302;2023-04-06T03:32:44;99831.34;;;10.16;100.00
48652;BME280;34442;52.362;-1.302;2023-04-06T03:35:10;99824.53;;;10.14;100.00
48652;BME280;34442;52.362;-1.302;2023-04-06T03:37:35;99826.97;;;10.15;100.00
48652;BME280;34442;52.362;-1.302;2023-04-06T03:40:02;99825.56;;;10.13;100.00
48652;BME280;34442;52.362;-1.302;2023-04-06T03:42:28;99820.41;;;10.11;100.00
48652;BME280;34442;52.362;-1.302;2023-04-06T03:44:53;99815.59;;;10.20;100.00
48652;BME280;34442;52.362;-1.302;2023-04-06T03:47:18;99812.31;;;10.25;100.00
48652;BME280;34442;52.362;-1.302;2023-04-06T03:49:44;99808.72;;;10.24;100.00
48652;BME280;34442;52.362;-1.302;2023-04-06T03:52:10;99800.59;;;10.12;100.00
48652;BME280;34442;52.362;-1.302;2023-04-06T03:54:35;99792.44;;;10.19;100.00
48652;BME280;34442;52.362;-1.302;2023-04-06T03:57:01;99795.31;;;10.24;100.00
48652;BME280;34442;52.362;-1.302;2023-04-06T03:59:26;99788.72;;;10.27;100.00
48652;BME280;34442;52.362;-1.302;2023-04-06T04:01:52;99779.00;;;10.26;100.00
48652;BME280;34442;52.362;-1.302;2023-04-06T04:04:17;99781.06;;;10.24;100.00
48652;BME280;34442;52.362;-1.302;2023-04-06T04:06:43;99776.47;;;10.31;100.00
48652;BME280;34442;52.362;-1.302;2023-04-06T04:09:08;99775.66;;;10.30;100.00
48652;BME280;34442;52.362;-1.302;2023-04-06T04:11:34;99773.56;;;10.32;100.00
48652;BME280;34442;52.362;-1.302;2023-04-06T04:13:59;99766.34;;;10.33;100.00
48652;BME280;34442;52.362;-1.302;2023-04-06T04:16:25;99770.88;;;10.32;100.00
48652;BME280;34442;52.362;-1.302;2023-04-06T04:18:50;99764.13;;;10.48;100.00
48652;BME280;34442;52.362;-1.302;2023-04-06T04:21:15;99768.59;;;10.98;100.00
48652;BME280;34442;52.362;-1.302;2023-04-06T04:23:41;99758.34;;;11.06;100.00
48652;BME280;34442;52.362;-1.302;2023-04-06T04:26:06;99757.13;;;10.47;100.00
48652;BME280;34442;52.362;-1.302;2023-04-06T04:28:32;99750.44;;;10.31;100.00
48652;BME280;34442;52.362;-1.302;2023-04-06T04:30:57;99760.22;;;10.87;100.00
48652;BME280;34442;52.362;-1.302;2023-04-06T04:33:23;99756.97;;;10.42;100.00
48652;BME280;34442;52.362;-1.302;2023-04-06T04:35:48;99760.59;;;10.29;100.00
48652;BME280;34442;52.362;-1.302;2023-04-06T04:38:13;99768.66;;;10.29;100.00
48652;BME280;34442;52.362;-1.302;2023-04-06T04:40:39;99765.97;;;10.73;100.00
48652;BME280;34442;52.362;-1.302;2023-04-06T04:43:04;99763.88;;;10.93;100.00
48652;BME280;34442;52.362;-1.302;2023-04-06T04:45:29;99769.88;;;10.52;100.00
48652;BME280;34442;52.362;-1.302;2023-04-06T04:47:55;99764.75;;;10.25;100.00
48652;BME280;34442;52.362;-1.302;2023-04-06T04:50:20;99763.19;;;10.61;100.00
48652;BME280;34442;52.362;-1.302;2023-04-06T04:52:46;99751.72;;;10.90;100.00
48652;BME280;34442;52.362;-1.302;2023-04-06T04:55:11;99748.25;;;11.02;100.00
48652;BME280;34442;52.362;-1.302;2023-04-06T04:57:37;99750.75;;;11.03;100.00
48652;BME280;34442;52.362;-1.302;2023-04-06T05:00:02;99753.19;;;11.05;100.00
48652;BME280;34442;52.362;-1.302;2023-04-06T05:02:28;99753.19;;;11.05;100.00
48652;BME280;34442;52.362;-1.302;2023-04-06T05:04:53;99761.03;;;11.06;100.00
48652;BME280;34442;52.362;-1.302;2023-04-06T05:07:19;99762.69;;;11.07;100.00
48652;BME280;34442;52.362;-1.302;2023-04-06T05:09:46;99760.81;;;11.08;100.00
48652;BME280;34442;52.362;-1.302;2023-04-06T05:12:11;99756.31;;;11.02;100.00
48652;BME280;34442;52.362;-1.302;2023-04-06T05:14:37;99772.03;;;11.05;100.00
48652;BME280;34442;52.362;-1.302;2023-04-06T05:17:02;99778.22;;;11.05;100.00
48652;BME280;34442;52.362;-1.302;2023-04-06T05:19:28;99770.59;;;11.02;100.00
48652;BME280;34442;52.362;-1.302;2023-04-06T05:21:53;99778.09;;;11.00;100.00
48652;BME280;34442;52.362;-1.302;2023-04-06T05:24:18;99775.38;;;11.00;100.00
48652;BME280;34442;52.362;-1.302;2023-04-06T05:26:44;99781.34;;;11.02;100.00
48652;BME280;34442;52.362;-1.302;2023-04-06T05:29:10;99778.22;;;11.05;100.00
48652;BME280;34442;52.362;-1.302;2023-04-06T05:31:36;99772.84;;;11.05;100.00
48652;BME280;34442;52.362;-1.302;2023-04-06T05:34:01;99770.16;;;11.05;100.00
48652;BME280;34442;52.362;-1.302;2023-04-06T05:36:26;99780.38;;;11.15;100.00
48652;BME280;34442;52.362;-1.302;2023-04-06T05:38:52;99773.34;;;11.14;100.00
48652;BME280;34442;52.362;-1.302;2023-04-06T05:41:18;99774.56;;;11.18;100.00
48652;BME280;34442;52.362;-1.302;2023-04-06T05:43:44;99767.63;;;10.49;100.00
48652;BME280;34442;52.362;-1.302;2023-04-06T05:46:10;99760.75;;;10.34;100.00
48652;BME280;34442;52.362;-1.302;2023-04-06T05:48:35;99763.66;;;10.33;100.00
48652;BME280;34442;52.362;-1.302;2023-04-06T05:51:01;99763.00;;;10.99;100.00
48652;BME280;34442;52.362;-1.302;2023-04-06T05:53:27;99762.59;;;11.14;100.00
48652;BME280;34442;52.362;-1.302;2023-04-06T05:55:54;99761.91;;;11.18;100.00
48652;BME280;34442;52.362;-1.302;2023-04-06T05:58:19;99762.72;;;11.19;100.00
48652;BME280;34442;52.362;-1.302;2023-04-06T06:00:45;99760.88;;;11.20;100.00
48652;BME280;34442;52.362;-1.302;2023-04-06T06:03:12;99748.94;;;10.97;100.00
48652;BME280;34442;52.362;-1.302;2023-04-06T06:05:37;99767.09;;;11.20;100.00
48652;BME280;34442;52.362;-1.302;2023-04-06T06:08:02;99772.25;;;11.22;100.00
48652;BME280;34442;52.362;-1.302;2023-04-06T06:10:28;99765.59;;;11.24;100.00
48652;BME280;34442;52.362;-1.302;2023-04-06T06:12:53;99768.28;;;11.24;100.00
48652;BME280;34442;52.362;-1.302;2023-04-06T06:15:19;99760.88;;;11.20;100.00
48652;BME280;34442;52.362;-1.302;2023-04-06T06:17:44;99765.22;;;11.21;100.00
48652;BME280;34442;52.362;-1.302;2023-04-06T06:20:10;99759.84;;;11.21;100.00
48652;BME280;34442;52.362;-1.302;2023-04-06T06:22:35;99760.66;;;11.21;100.00
48652;BME280;34442;52.362;-1.302;2023-04-06T06:25:01;99770.81;;;11.19;100.00
48652;BME280;34442;52.362;-1.302;2023-04-06T06:27:27;99764.28;;;11.27;100.00
48652;BME280;34442;52.362;-1.302;2023-04-06T06:29:52;99762.44;;;11.27;100.00
48652;BME280;34442;52.362;-1.302;2023-04-06T06:32:18;99767.09;;;11.20;100.00
48652;BME280;34442;52.362;-1.302;2023-04-06T06:34:43;99773.16;;;11.15;100.00
48652;BME280;34442;52.362;-1.302;2023-04-06T06:37:08;99766.03;;;11.21;100.00
48652;BME280;34442;52.362;-1.302;2023-04-06T06:39:34;99764.47;;;11.13;100.00
48652;BME280;34442;52.362;-1.302;2023-04-06T06:41:59;99775.00;;;11.15;100.00
48652;BME280;34442;52.362;-1.302;2023-04-06T06:44:26;99778.16;;;11.12;100.00
48652;BME280;34442;52.362;-1.302;2023-04-06T06:46:52;99768.34;;;11.17;100.00
48652;BME280;34442;52.362;-1.302;2023-04-06T06:49:19;99777.03;;;11.20;100.00
48652;BME280;34442;52.362;-1.302;2023-04-06T06:51:45;99770.97;;;11.24;100.00
48652;BME280;34442;52.362;-1.302;2023-04-06T06:54:11;99773.50;;;11.19;100.00
48652;BME280;34442;52.362;-1.302;2023-04-06T06:56:38;99781.13;;;11.22;100.00
48652;BME280;34442;52.362;-1.302;2023-04-06T06:59:04;99771.34;;;11.28;100.00
48652;BME280;34442;52.362;-1.302;2023-04-06T07:01:32;99779.88;;;11.25;100.00
48652;BME280;34442;52.362;-1.302;2023-04-06T07:03:58;99777.03;;;11.20;100.00
48652;BME280;34442;52.362;-1.302;2023-04-06T07:06:23;99786.75;;;11.21;100.00
48652;BME280;34442;52.362;-1.302;2023-04-06T07:08:49;99783.59;;;11.24;100.00
48652;BME280;34442;52.362;-1.302;2023-04-06T07:11:14;99790.25;;;11.21;100.00
48652;BME280;34442;52.362;-1.302;2023-04-06T07:13:39;99793.75;;;11.22;100.00
48652;BME280;34442;52.362;-1.302;2023-04-06T07:16:05;99785.69;;;11.22;100.00
48652;BME280;34442;52.362;-1.302;2023-04-06T07:18:33;99790.84;;;11.23;100.00
48652;BME280;34442;52.362;-1.302;2023-04-06T07:20:59;99793.06;;;11.26;100.00
48652;BME280;34442;52.362;-1.302;2023-04-06T07:23:24;99794.94;;;11.26;100.00
48652;BME280;34442;52.362;-1.302;2023-04-06T07:25:50;99796.31;;;11.16;100.00
48652;BME280;34442;52.362;-1.302;2023-04-06T07:28:17;99799.69;;;11.12;100.00
48652;BME280;34442;52.362;-1.302;2023-04-06T07:30:43;99815.28;;;11.22;100.00
48652;BME280;34442;52.362;-1.302;2023-04-06T07:33:08;99809.53;;;11.18;100.00
48652;BME280;34442;52.362;-1.302;2023-04-06T07:35:34;99806.94;;;11.11;100.00
48652;BME280;34442;52.362;-1.302;2023-04-06T07:38:01;99812.66;;;11.15;100.00
48652;BME280;34442;52.362;-1.302;2023-04-06T07:40:27;99817.00;;;11.16;100.00
48652;BME280;34442;52.362;-1.302;2023-04-06T07:42:52;99819.31;;;10.51;100.00
48652;BME280;34442;52.362;-1.302;2023-04-06T07:45:18;99818.03;;;11.15;100.00
48652;BME280;34442;52.362;-1.302;2023-04-06T07:47:43;99823.88;;;11.30;100.00
48652;BME280;34442;52.362;-1.302;2023-04-06T07:50:10;99818.88;;;11.34;100.00
48652;BME280;34442;52.362;-1.302;2023-04-06T07:52:35;99819.00;;;11.39;100.00
48652;BME280;34442;52.362;-1.302;2023-04-06T07:55:01;99824.19;;;11.40;100.00
48652;BME280;34442;52.362;-1.302;2023-04-06T07:57:26;99830.00;;;11.37;100.00
48652;BME280;34442;52.362;-1.302;2023-04-06T07:59:51;99829.84;;;11.51;100.00
48652;BME280;34442;52.362;-1.302;2023-04-06T08:02:17;99828.28;;;11.43;100.00
48652;BME280;34442;52.362;-1.302;2023-04-06T08:04:43;99838.59;;;11.46;100.00
48652;BME280;34442;52.362;-1.302;2023-04-06T08:07:08;99834.13;;;11.40;100.00
48652;BME280;34442;52.362;-1.302;2023-04-06T08:09:34;99830.59;;;11.39;100.00
48652;BME280;34442;52.362;-1.302;2023-04-06T08:12:00;99844.22;;;11.45;100.00
48652;BME280;34442;52.362;-1.302;2023-04-06T08:14:25;99851.41;;;11.32;100.00
48652;BME280;34442;52.362;-1.302;2023-04-06T08:16:51;99850.84;;;10.87;100.00
48652;BME280;34442;52.362;-1.302;2023-04-06T08:19:16;99850.25;;;10.60;100.00
48652;BME280;34442;52.362;-1.302;2023-04-06T08:21:44;99849.69;;;11.20;100.00
48652;BME280;34442;52.362;-1.302;2023-04-06T08:24:10;99855.72;;;11.33;100.00
48652;BME280;34442;52.362;-1.302;2023-04-06T08:26:35;99849.28;;;11.53;100.00
48652;BME280;34442;52.362;-1.302;2023-04-06T08:29:01;99847.69;;;11.63;100.00
48652;BME280;34442;52.362;-1.302;2023-04-06T08:31:26;99846.97;;;11.01;100.00
48652;BME280;34442;52.362;-1.302;2023-04-06T08:33:52;99851.38;;;10.96;100.00
48652;BME280;34442;52.362;-1.302;2023-04-06T08:36:18;99852.34;;;11.01;100.00
48652;BME280;34442;52.362;-1.302;2023-04-06T08:38:48;99853.91;;;11.09;100.00
48652;BME280;34442;52.362;-1.302;2023-04-06T08:41:15;99858.91;;;11.05;100.00
48652;BME280;34442;52.362;-1.302;2023-04-06T08:46:08;99861.47;;;11.00;100.00
48652;BME280;34442;52.362;-1.302;2023-04-06T08:48:34;99866.59;;;11.02;100.00
48652;BME280;34442;52.362;-1.302;2023-04-06T08:51:00;99864.97;;;11.19;100.00
48652;BME280;34442;52.362;-1.302;2023-04-06T08:53:26;99862.44;;;11.61;100.00
48652;BME280;34442;52.362;-1.302;2023-04-06T08:55:51;99863.47;;;11.60;100.00
48652;BME280;34442;52.362;-1.302;2023-04-06T08:58:17;99867.97;;;11.66;100.00
48652;BME280;34442;52.362;-1.302;2023-04-06T09:00:43;99867.91;;;11.54;100.00
48652;BME280;34442;52.362;-1.302;2023-04-06T09:03:12;99864.53;;;11.22;100.00
48652;BME280;34442;52.362;-1.302;2023-04-06T09:05:38;99871.06;;;10.89;100.00
48652;BME280;34442;52.362;-1.302;2023-04-06T09:08:03;99879.75;;;10.91;100.00
48652;BME280;34442;52.362;-1.302;2023-04-06T09:10:29;99872.56;;;10.85;100.00
48652;BME280;34442;52.362;-1.302;2023-04-06T09:13:07;99875.44;;;10.90;100.00
48652;BME280;34442;52.362;-1.302;2023-04-06T09:15:34;99873.59;;;11.64;100.00
48652;BME280;34442;52.362;-1.302;2023-04-06T09:18:00;99883.97;;;11.24;100.00
48652;BME280;34442;52.362;-1.302;2023-04-06T09:20:26;99883.66;;;11.14;100.00
48652;BME280;34442;52.362;-1.302;2023-04-06T09:22:54;99878.56;;;11.06;100.00
48652;BME280;34442;52.362;-1.302;2023-04-06T09:25:22;99877.53;;;11.25;100.00
48652;BME280;34442;52.362;-1.302;2023-04-06T09:28:02;99879.59;;;11.97;100.00
48652;BME280;34442;52.362;-1.302;2023-04-06T09:30:28;99880.47;;;12.09;100.00
48652;BME280;34442;52.362;-1.302;2023-04-06T09:32:56;99875.38;;;12.19;100.00
48652;BME280;34442;52.362;-1.302;2023-04-06T09:35:23;99883.59;;;11.94;100.00
48652;BME280;34442;52.362;-1.302;2023-04-06T09:37:50;99884.84;;;12.10;100.00
48652;BME280;34442;52.362;-1.302;2023-04-06T09:40:17;99890.16;;;12.28;100.00
48652;BME280;34442;52.362;-1.302;2023-04-06T09:42:48;99890.53;;;12.32;100.00
48652;BME280;34442;52.362;-1.302;2023-04-06T09:45:15;99898.63;;;11.65;100.00
48652;BME280;34442;52.362;-1.302;2023-04-06T09:47:43;99900.50;;;11.64;100.00
48652;BME280;34442;52.362;-1.302;2023-04-06T09:50:11;99901.19;;;11.41;100.00
48652;BME280;34442;52.362;-1.302;2023-04-06T09:52:41;99899.38;;;11.35;100.00
48652;BME280;34442;52.362;-1.302;2023-04-06T09:55:08;99903.44;;;11.45;100.00
48652;BME280;34442;52.362;-1.302;2023-04-06T09:57:51;99910.53;;;12.24;100.00
48652;BME280;34442;52.362;-1.302;2023-04-06T10:00:21;99908.44;;;12.26;100.00
48652;BME280;34442;52.362;-1.302;2023-04-06T10:08:11;99917.91;;;11.25;100.00
48652;BME280;34442;52.362;-1.302;2023-04-06T10:10:37;99916.13;;;11.74;100.00
48652;BME280;34442;52.362;-1.302;2023-04-06T10:13:06;99918.25;;;11.90;100.00
48652;BME280;34442;52.362;-1.302;2023-04-06T10:15:33;99922.00;;;11.89;100.00
48652;BME280;34442;52.362;-1.302;2023-04-06T10:17:59;99919.53;;;12.18;100.00
48652;BME280;34442;52.362;-1.302;2023-04-06T10:20:35;99918.38;;;12.26;100.00
48652;BME280;34442;52.362;-1.302;2023-04-06T10:23:19;99927.25;;;12.14;100.00
48652;BME280;34442;52.362;-1.302;2023-04-06T10:25:57;99932.38;;;11.86;100.00
48652;BME280;34442;52.362;-1.302;2023-04-06T10:28:24;99925.56;;;11.83;100.00
48652;BME280;34442;52.362;-1.302;2023-04-06T10:30:56;99936.47;;;11.52;100.00
48652;BME280;34442;52.362;-1.302;2023-04-06T10:33:22;99946.00;;;11.29;100.00
48652;BME280;34442;52.362;-1.302;2023-04-06T10:35:47;99944.25;;;11.60;100.00
48652;BME280;34442;52.362;-1.302;2023-04-06T10:38:13;99942.81;;;11.76;100.00
48652;BME280;34442;52.362;-1.302;2023-04-06T10:40:40;99949.63;;;11.41;100.00
48652;BME280;34442;52.362;-1.302;2023-04-06T10:43:20;99943.41;;;11.41;100.00
48652;BME280;34442;52.362;-1.302;2023-04-06T10:45:55;99937.88;;;11.54;100.00
48652;BME280;34442;52.362;-1.302;2023-04-06T10:48:21;99938.13;;;11.71;100.00
48652;BME280;34442;52.362;-1.302;2023-04-06T10:50:48;99941.41;;;12.10;100.00
48652;BME280;34442;52.362;-1.302;2023-04-06T10:53:25;99933.00;;;12.18;100.00
48652;BME280;34442;52.362;-1.302;2023-04-06T10:55:52;99934.47;;;12.32;100.00
48652;BME280;34442;52.362;-1.302;2023-04-06T10:58:18;99937.97;;;12.33;100.00
48652;BME280;34442;52.362;-1.302;2023-04-06T11:00:48;99923.31;;;12.29;100.00
48652;BME280;34442;52.362;-1.302;2023-04-06T11:03:14;99922.53;;;12.40;100.00
48652;BME280;34442;52.362;-1.302;2023-04-06T11:05:47;99924.66;;;12.50;100.00
48652;BME280;34442;52.362;-1.302;2023-04-06T11:08:31;99929.00;;;12.51;100.00
48652;BME280;34442;52.362;-1.302;2023-04-06T11:11:17;99933.19;;;12.47;100.00
48652;BME280;34442;52.362;-1.302;2023-04-06T11:13:48;99950.41;;;12.34;100.00
48652;BME280;34442;52.362;-1.302;2023-04-06T11:16:33;99964.84;;;11.29;100.00
48652;BME280;34442;52.362;-1.302;2023-04-06T11:19:00;99961.63;;;11.21;100.00
48652;BME280;34442;52.362;-1.302;2023-04-06T11:21:40;99962.19;;;10.79;100.00
48652;BME280;34442;52.362;-1.302;2023-04-06T11:26:48;99961.34;;;10.79;100.00
48652;BME280;34442;52.362;-1.302;2023-04-06T11:29:20;99959.22;;;11.12;100.00
48652;BME280;34442;52.362;-1.302;2023-04-06T11:31:48;99957.22;;;11.01;100.00
48652;BME280;34442;52.362;-1.302;2023-04-06T11:34:20;99959.41;;;11.11;100.00
48652;BME280;34442;52.362;-1.302;2023-04-06T11:36:48;99960.53;;;11.47;100.00
48652;BME280;34442;52.362;-1.302;2023-04-06T11:39:22;99951.97;;;11.56;100.00
48652;BME280;34442;52.362;-1.302;2023-04-06T11:41:53;99952.50;;;11.65;100.00
48652;BME280;34442;52.362;-1.302;2023-04-06T11:44:33;99956.44;;;11.81;100.00
48652;BME280;34442;52.362;-1.302;2023-04-06T11:46:59;99950.84;;;12.01;100.00
48652;BME280;34442;52.362;-1.302;2023-04-06T11:49:28;99960.72;;;12.07;100.00
48652;BME280;34442;52.362;-1.302;2023-04-06T11:51:54;99955.19;;;11.83;100.00
48652;BME280;34442;52.362;-1.302;2023-04-06T11:54:33;99956.16;;;11.89;100.00
48652;BME280;34442;52.362;-1.302;2023-04-06T11:56:59;99956.28;;;11.76;100.00
48652;BME280;34442;52.362;-1.302;2023-04-06T11:59:26;99962.03;;;11.42;100.00
48652;BME280;34442;52.362;-1.302;2023-04-06T12:01:52;99963.88;;;11.85;100.00
48652;BME280;34442;52.362;-1.302;2023-04-06T12:04:18;99966.34;;;11.68;100.00
48652;BME280;34442;52.362;-1.302;2023-04-06T12:06:44;99961.81;;;11.81;100.00
48652;BME280;34442;52.362;-1.302;2023-04-06T12:09:09;99966.84;;;12.14;100.00
48652;BME280;34442;52.362;-1.302;2023-04-06T12:11:35;99954.84;;;12.70;100.00
48652;BME280;34442;52.362;-1.302;2023-04-06T12:14:00;99963.56;;;12.84;100.00
48652;BME280;34442;52.362;-1.302;2023-04-06T12:16:27;99969.31;;;12.99;100.00
48652;BME280;34442;52.362;-1.302;2023-04-06T12:18:52;99972.09;;;12.69;100.00
48652;BME280;34442;52.362;-1.302;2023-04-06T12:21:17;99975.50;;;12.34;100.00
48652;BME280;34442;52.362;-1.302;2023-04-06T12:23:43;99989.41;;;11.76;100.00
48652;BME280;34442;52.362;-1.302;2023-04-06T12:26:08;99993.00;;;11.52;100.00
48652;BME280;34442;52.362;-1.302;2023-04-06T12:28:34;99997.25;;;11.16;100.00
48652;BME280;34442;52.362;-1.302;2023-04-06T12:30:59;99998.34;;;11.08;100.00
48652;BME280;34442;52.362;-1.302;2023-04-06T12:33:25;99999.44;;;11.26;100.00
48652;BME280;34442;52.362;-1.302;2023-04-06T12:35:50;100004.13;;;11.37;100.00
48652;BME280;34442;52.362;-1.302;2023-04-06T12:38:16;100002.41;;;11.42;100.00
48652;BME280;34442;52.362;-1.302;2023-04-06T12:40:42;100004.22;;;11.67;100.00
48652;BME280;34442;52.362;-1.302;2023-04-06T12:43:07;100000.34;;;11.63;100.00
48652;BME280;34442;52.362;-1.302;2023-04-06T12:45:34;100001.91;;;11.52;100.00
48652;BME280;34442;52.362;-1.302;2023-04-06T12:47:59;100006.28;;;11.47;100.00